»·PEaware :: N1671Q KSBA-KSBP

N1671Q :: KSBA-KSBP

FLIGHT INFORMATION

Flight Status: Arrived
Operator: Privately registered:
United States
More flights under this callsign
Pilot: Gary H. (18965)
Aircraft: CESSNA 172 SKYHAWK
(C172)
More flights by this aircraft type
Origin: KSBA Santa Barbara Mun
United States
Destination: KSBP San Luis Co Regl
United States
More flights between these airports :: More routes between these airports
Route: +
File this flight plan on PilotEdge
Remarks:
Altitude:
(Current/Filed)
4,500ft
Speed:
(Current/Filed)
0kts
Departed: 03-Sep-18 06:34 PM
Arrived: 03-Sep-18 07:17 PM
Distance/Time
Traveled:
63nm/0:43
Distance/Time
To Go:
Arrived

Flight Plot

Page will automatically refresh every two minutes.


Map Options




Map Legend


Flown Route
Filed Route
Departure Airport
Arrival Airport
Navaid (VOR, NDB)
Fix

Horizontal Profiles

Position Reports

Time Latitude Longitude Heading Altitude Ground
Speed
03-Sep-18 18:29 34.432314 -119.835346 237 14ft 0kts
03-Sep-18 18:30 34.432314 -119.835346 237 14ft 0kts
03-Sep-18 18:31 34.432314 -119.835346 237 14ft 0kts
03-Sep-18 18:32 34.429719 -119.835330 174 11ft 11kts
03-Sep-18 18:33 34.428800 -119.835230 164 11ft 0kts
03-Sep-18 18:34 34.428800 -119.835230 164 11ft 0kts
03-Sep-18 18:35 34.428800 -119.835230 164 11ft 0kts
03-Sep-18 18:36 34.427858 -119.837423 267 15ft 51kts
03-Sep-18 18:37 34.425236 -119.860527 261 672ft 80kts
03-Sep-18 18:38 34.419480 -119.889764 256 1023ft 93kts
03-Sep-18 18:39 34.413677 -119.922656 260 941ft 102kts
03-Sep-18 18:40 34.408823 -119.956413 258 944ft 101kts
03-Sep-18 18:41 34.400824 -119.989633 255 849ft 100kts
03-Sep-18 18:42 34.416208 -120.015739 313 1384ft 109kts
03-Sep-18 18:43 34.439863 -120.039221 312 1874ft 109kts
03-Sep-18 18:44 34.462746 -120.064107 316 2370ft 112kts
03-Sep-18 18:45 34.487150 -120.088183 317 2821ft 113kts
03-Sep-18 18:46 34.511820 -120.111263 316 3352ft 105kts
03-Sep-18 18:47 34.533287 -120.131869 311 4002ft 94kts
03-Sep-18 18:48 34.553930 -120.152206 314 4505ft 100kts
03-Sep-18 18:49 34.575414 -120.176183 314 4529ft 108kts
03-Sep-18 18:50 34.599424 -120.199054 317 4553ft 112kts
03-Sep-18 18:51 34.624598 -120.221393 320 4563ft 113kts
03-Sep-18 18:52 34.649236 -120.244441 317 4519ft 112kts
03-Sep-18 18:53 34.675650 -120.264837 323 4485ft 112kts
03-Sep-18 18:54 34.703367 -120.282968 323 4449ft 112kts
03-Sep-18 18:55 34.728930 -120.302240 326 4564ft 95kts
03-Sep-18 18:56 34.751895 -120.320054 331 4489ft 98kts
03-Sep-18 18:57 34.775731 -120.336084 328 4465ft 96kts
03-Sep-18 18:58 34.798636 -120.352428 329 4477ft 95kts
03-Sep-18 18:59 34.820468 -120.369747 323 4498ft 94kts
03-Sep-18 19:00 34.842427 -120.386961 328 4515ft 94kts
03-Sep-18 19:01 34.864491 -120.404099 329 4527ft 94kts
03-Sep-18 19:02 34.886570 -120.421117 331 4534ft 94kts
03-Sep-18 19:03 34.910496 -120.434143 336 4542ft 94kts
03-Sep-18 19:04 34.933305 -120.450092 330 4548ft 95kts
03-Sep-18 19:05 34.955721 -120.467161 328 4554ft 95kts
03-Sep-18 19:06 34.980104 -120.479532 339 4556ft 95kts
03-Sep-18 19:07 35.005450 -120.489355 343 4562ft 96kts
03-Sep-18 19:08 35.030562 -120.499503 339 4582ft 95kts
03-Sep-18 19:09 35.055262 -120.510277 339 4602ft 95kts
03-Sep-18 19:10 35.079971 -120.521274 347 4560ft 95kts
03-Sep-18 19:11 35.105302 -120.528143 345 4480ft 90kts
03-Sep-18 19:12 35.133386 -120.534628 351 3479ft 106kts
03-Sep-18 19:13 35.162526 -120.537329 353 2683ft 105kts
03-Sep-18 19:14 35.186091 -120.552478 307 2076ft 92kts
03-Sep-18 19:14 35.198145 -120.572863 305 1649ft 85kts
03-Sep-18 19:15 35.210813 -120.595617 306 1240ft 80kts
03-Sep-18 19:17 35.223516 -120.617010 307 707ft 62kts
03-Sep-18 19:17 35.231300 -120.630478 304 326ft 53kts
03-Sep-18 19:18 35.237251 -120.639916 7 191ft 7kts
03-Sep-18 19:19 35.237488 -120.639902 11 191ft 0kts
03-Sep-18 19:21 35.237488 -120.639902 11 191ft 0kts
03-Sep-18 19:22 35.237346 -120.639016 126 195ft 10kts
03-Sep-18 19:22 35.237679 -120.636322 329 205ft 2kts

Navigation Log

Ident Type
1. KSBA Airport
2. KSBP Airport